createdAt,value
2022-08-03T00:01:48.508Z,18.51
2022-08-03T00:04:14.978Z,18.51
2022-08-03T00:06:41.407Z,18.50
2022-08-03T00:09:07.926Z,18.49
2022-08-03T00:11:35.121Z,18.50
2022-08-03T00:14:01.789Z,18.48
2022-08-03T00:16:28.391Z,18.46
2022-08-03T00:18:54.801Z,18.45
2022-08-03T00:21:21.204Z,18.47
2022-08-03T00:23:51.716Z,18.48
2022-08-03T00:26:22.443Z,18.42
2022-08-03T00:28:49.713Z,18.40
2022-08-03T00:31:16.537Z,18.44
2022-08-03T00:33:59.629Z,18.44
2022-08-03T00:36:27.217Z,18.46
2022-08-03T00:38:53.791Z,18.49
2022-08-03T00:41:20.389Z,18.52
2022-08-03T00:43:47.667Z,18.52
2022-08-03T00:46:19.030Z,18.49
2022-08-03T00:48:47.233Z,18.44
2022-08-03T00:51:13.828Z,18.42
2022-08-03T00:53:40.954Z,18.45
2022-08-03T00:56:07.444Z,18.43
2022-08-03T00:58:33.926Z,18.42
2022-08-03T01:01:00.554Z,18.41
2022-08-03T01:03:27.029Z,18.41
2022-08-03T01:06:03.009Z,18.36
2022-08-03T01:08:46.568Z,18.35
2022-08-03T01:11:59.915Z,18.34
2022-08-03T01:14:53.153Z,18.33
2022-08-03T01:17:28.804Z,18.30
2022-08-03T01:20:06.793Z,18.33
2022-08-03T01:22:42.145Z,18.33
2022-08-03T01:25:11.362Z,18.33
2022-08-03T01:27:58.796Z,18.31
2022-08-03T01:30:30.087Z,18.29
2022-08-03T01:33:03.266Z,18.26
2022-08-03T01:35:44.678Z,18.24
2022-08-03T01:38:22.405Z,18.20
2022-08-03T01:40:53.917Z,18.19
2022-08-03T01:44:26.485Z,18.19
2022-08-03T01:46:11.583Z,18.19
2022-08-03T01:48:39.962Z,18.18
2022-08-03T01:51:08.908Z,18.16
2022-08-03T01:53:36.853Z,18.15
2022-08-03T01:56:06.174Z,18.15
2022-08-03T01:58:35.280Z,18.13
2022-08-03T02:01:03.595Z,18.12
2022-08-03T02:03:31.737Z,18.12
2022-08-03T02:06:56.804Z,18.09
2022-08-03T02:08:48.298Z,18.10
2022-08-03T02:11:15.396Z,18.08
2022-08-03T02:13:43.559Z,18.05
2022-08-03T02:16:12.537Z,18.01
2022-08-03T02:18:40.832Z,18.00
2022-08-03T02:21:11.012Z,18.03
2022-08-03T02:23:38.821Z,18.01
2022-08-03T02:26:09.444Z,17.97
2022-08-03T02:28:39.971Z,17.97
2022-08-03T02:31:15.381Z,17.98
2022-08-03T02:33:47.837Z,17.99
2022-08-03T02:36:15.748Z,17.98
2022-08-03T02:38:44.833Z,17.97
2022-08-03T02:41:18.104Z,17.96
2022-08-03T02:44:06.696Z,17.89
2022-08-03T02:46:38.431Z,17.86
2022-08-03T02:49:40.888Z,17.81
2022-08-03T02:51:55.237Z,17.80
2022-08-03T02:54:23.425Z,17.78
2022-08-03T02:56:51.578Z,17.76
2022-08-03T02:59:19.468Z,17.78
2022-08-03T03:01:46.724Z,17.77
2022-08-03T03:04:14.337Z,17.79
2022-08-03T03:06:42.660Z,17.75
2022-08-03T03:09:11.537Z,17.74
2022-08-03T03:11:39.031Z,17.73
2022-08-03T03:14:05.981Z,17.73
2022-08-03T03:16:36.372Z,17.73
2022-08-03T03:19:03.170Z,17.73
2022-08-03T03:21:31.099Z,17.72
2022-08-03T03:23:57.969Z,17.74
2022-08-03T03:26:24.464Z,17.69
2022-08-03T03:28:50.937Z,17.69
2022-08-03T03:31:17.598Z,17.67
2022-08-03T03:33:44.694Z,17.66
2022-08-03T03:36:11.256Z,17.66
2022-08-03T03:38:37.725Z,17.67
2022-08-03T03:41:04.940Z,17.66
2022-08-03T03:43:31.979Z,17.65
2022-08-03T03:45:59.311Z,17.63
2022-08-03T03:48:26.250Z,17.64
2022-08-03T03:50:53.320Z,17.61
2022-08-03T03:53:20.482Z,17.61
2022-08-03T03:55:59.179Z,17.62
2022-08-03T03:58:28.874Z,17.64
2022-08-03T04:00:55.493Z,17.66
2022-08-03T04:03:22.049Z,17.70
2022-08-03T04:06:07.267Z,17.70
2022-08-03T04:08:52.141Z,17.72
2022-08-03T04:11:30.437Z,17.74
2022-08-03T04:14:19.279Z,17.75
2022-08-03T04:17:06.432Z,17.81
2022-08-03T04:19:41.790Z,17.85
2022-08-03T04:22:14.167Z,17.85
2022-08-03T04:25:06.401Z,17.88
2022-08-03T04:27:38.098Z,17.93
2022-08-03T04:30:06.830Z,17.98
2022-08-03T04:32:34.087Z,18.01
2022-08-03T04:35:00.574Z,18.02
2022-08-03T04:37:39.916Z,18.04
2022-08-03T04:40:10.806Z,18.08
2022-08-03T04:42:39.503Z,18.11
2022-08-03T04:45:07.983Z,18.14
2022-08-03T04:47:35.701Z,18.21
2022-08-03T04:50:03.734Z,18.28
2022-08-03T04:52:30.712Z,18.32
2022-08-03T04:54:57.791Z,18.35
2022-08-03T04:57:24.439Z,18.40
2022-08-03T05:00:01.405Z,18.45
2022-08-03T05:02:29.049Z,18.54
2022-08-03T05:04:55.462Z,18.60
2022-08-03T05:07:25.023Z,18.67
2022-08-03T05:09:52.736Z,18.72
2022-08-03T05:12:19.451Z,18.79
2022-08-03T05:14:45.846Z,18.89
2022-08-03T05:17:12.228Z,18.94
2022-08-03T05:19:38.625Z,18.97
2022-08-03T05:22:05.087Z,18.98
2022-08-03T05:24:31.495Z,19.04
2022-08-03T05:26:57.928Z,19.10
2022-08-03T05:29:24.366Z,19.08
2022-08-03T05:31:50.842Z,19.08
2022-08-03T05:34:17.289Z,19.09
2022-08-03T05:36:43.747Z,19.15
2022-08-03T05:39:10.154Z,19.19
2022-08-03T05:41:37.563Z,19.25
2022-08-03T05:44:04.688Z,19.25
2022-08-03T05:46:31.197Z,19.29
2022-08-03T05:48:57.695Z,19.32
2022-08-03T05:51:24.208Z,19.38
2022-08-03T05:53:50.681Z,19.43
2022-08-03T05:56:17.235Z,19.46
2022-08-03T05:58:45.357Z,19.41
2022-08-03T06:01:11.973Z,19.47
2022-08-03T06:03:38.511Z,19.51
2022-08-03T06:06:05.024Z,19.50
2022-08-03T06:08:31.497Z,19.56
2022-08-03T06:10:58.776Z,19.59
2022-08-03T06:13:25.233Z,19.75
2022-08-03T06:15:51.637Z,19.77
2022-08-03T06:18:18.097Z,19.84
2022-08-03T06:20:44.559Z,19.94
2022-08-03T06:23:16.226Z,19.97
2022-08-03T06:25:44.756Z,20.13
2022-08-03T06:28:35.428Z,20.01
2022-08-03T06:31:00.877Z,19.97
2022-08-03T06:34:31.327Z,20.03
2022-08-03T06:36:13.745Z,20.12
2022-08-03T06:38:40.157Z,20.61
2022-08-03T06:41:06.549Z,20.92
2022-08-03T06:43:37.844Z,20.71
2022-08-03T06:46:06.023Z,20.65
2022-08-03T06:48:32.715Z,20.58
2022-08-03T06:50:59.311Z,20.75
2022-08-03T06:53:26.098Z,20.76
2022-08-03T06:55:54.852Z,20.96
2022-08-03T06:58:22.005Z,21.07
2022-08-03T07:00:48.462Z,20.94
2022-08-03T07:03:15.097Z,21.17
2022-08-03T07:05:43.435Z,21.41
2022-08-03T07:08:10.130Z,21.70
2022-08-03T07:10:37.034Z,21.58
2022-08-03T07:13:03.998Z,21.80
2022-08-03T07:15:53.687Z,21.86
2022-08-03T07:18:17.583Z,21.76
2022-08-03T07:20:55.586Z,22.00
2022-08-03T07:23:22.305Z,22.04
2022-08-03T07:25:48.711Z,22.05
2022-08-03T07:28:15.229Z,22.17
2022-08-03T07:30:41.618Z,21.87
2022-08-03T07:33:08.024Z,21.89
2022-08-03T07:35:34.542Z,21.75
2022-08-03T07:38:01.067Z,21.40
2022-08-03T07:40:31.599Z,21.52
2022-08-03T07:42:58.720Z,21.55
2022-08-03T07:45:26.464Z,21.69
2022-08-03T07:47:53.917Z,21.47
2022-08-03T07:50:20.919Z,21.60
2022-08-03T07:52:50.781Z,21.40
2022-08-03T07:55:22.986Z,21.25
2022-08-03T07:58:07.579Z,21.22
2022-08-03T08:00:34.100Z,21.21
2022-08-03T08:03:00.756Z,21.28
2022-08-03T08:05:28.160Z,21.68
2022-08-03T08:07:54.834Z,21.67
2022-08-03T08:10:21.735Z,22.06
2022-08-03T08:12:48.876Z,22.10
2022-08-03T08:15:15.434Z,21.94
2022-08-03T08:17:44.199Z,21.67
2022-08-03T08:20:15.345Z,21.66
2022-08-03T08:22:45.346Z,21.94
2022-08-03T08:25:13.020Z,21.90
2022-08-03T08:28:29.284Z,21.81
2022-08-03T08:30:34.911Z,21.35
2022-08-03T08:33:01.726Z,21.36
2022-08-03T08:35:28.195Z,21.46
2022-08-03T08:37:54.677Z,21.45
2022-08-03T08:40:22.588Z,21.48
2022-08-03T08:42:58.406Z,21.69
2022-08-03T08:45:26.184Z,22.18
2022-08-03T08:47:59.905Z,22.57
2022-08-03T08:50:29.649Z,22.01
2022-08-03T08:52:58.693Z,21.84
2022-08-03T08:55:25.335Z,21.56
2022-08-03T08:58:05.031Z,21.51
2022-08-03T09:00:32.461Z,21.63
2022-08-03T09:03:00.653Z,21.50
2022-08-03T09:05:53.926Z,21.53
2022-08-03T09:08:14.204Z,21.63
2022-08-03T09:10:40.650Z,21.64
2022-08-03T09:13:07.957Z,21.54
2022-08-03T09:15:34.585Z,21.53
2022-08-03T09:18:03.115Z,21.27
2022-08-03T09:20:32.450Z,21.47
2022-08-03T09:23:26.335Z,21.36
2022-08-03T09:26:00.138Z,21.36
2022-08-03T09:29:00.614Z,21.50
2022-08-03T09:31:30.049Z,21.18
2022-08-03T09:33:59.835Z,21.13
2022-08-03T09:36:37.268Z,21.13
2022-08-03T09:39:06.534Z,21.09
2022-08-03T09:41:33.918Z,21.03
2022-08-03T09:44:00.408Z,20.99
2022-08-03T09:46:31.647Z,21.08
2022-08-03T09:49:12.130Z,21.12
2022-08-03T09:52:31.606Z,20.87
2022-08-03T09:54:27.994Z,21.08
2022-08-03T09:56:54.696Z,21.36
2022-08-03T09:59:32.378Z,21.17
2022-08-03T10:02:00.637Z,20.82
2022-08-03T10:04:27.881Z,20.92
2022-08-03T10:07:06.632Z,20.98
2022-08-03T10:09:33.266Z,20.98
2022-08-03T10:12:08.310Z,21.10
2022-08-03T10:14:37.888Z,20.98
2022-08-03T10:17:04.433Z,21.03
2022-08-03T10:19:31.099Z,20.86
2022-08-03T10:22:03.255Z,20.57
2022-08-03T10:24:31.523Z,20.83
2022-08-03T10:27:07.101Z,21.27
2022-08-03T10:29:45.255Z,21.16
2022-08-03T10:32:21.511Z,21.24
2022-08-03T10:34:50.975Z,20.94
2022-08-03T10:37:30.421Z,21.13
2022-08-03T10:39:59.834Z,21.28
2022-08-03T10:42:28.219Z,21.18
2022-08-03T10:45:23.643Z,21.00
2022-08-03T10:47:52.600Z,21.22
2022-08-03T10:50:19.499Z,21.25
2022-08-03T10:53:06.954Z,21.27
2022-08-03T10:56:00.640Z,21.55
2022-08-03T10:58:37.402Z,21.90
2022-08-03T11:01:12.947Z,22.15
2022-08-03T11:03:54.405Z,22.20
2022-08-03T11:06:27.374Z,22.30
2022-08-03T11:09:09.905Z,22.82
2022-08-03T11:11:44.137Z,23.59
2022-08-03T11:14:13.449Z,24.14
2022-08-03T11:16:46.713Z,23.86
2022-08-03T11:19:16.344Z,24.23
2022-08-03T11:21:51.828Z,23.99
2022-08-03T11:24:36.289Z,24.00
2022-08-03T11:27:18.352Z,23.79
2022-08-03T11:30:00.162Z,24.07
2022-08-03T11:32:39.908Z,24.52
2022-08-03T11:35:24.089Z,24.27
2022-08-03T11:38:05.920Z,23.70
2022-08-03T11:40:50.396Z,24.03
2022-08-03T11:43:30.435Z,24.39
2022-08-03T11:46:06.366Z,25.32
2022-08-03T11:48:44.492Z,24.73
2022-08-03T11:51:25.989Z,24.89
2022-08-03T11:53:56.858Z,25.05
2022-08-03T11:56:23.733Z,25.27
2022-08-03T11:59:01.264Z,25.19
2022-08-03T12:01:41.957Z,25.33
2022-08-03T12:04:08.445Z,24.58
2022-08-03T12:06:54.843Z,24.81
2022-08-03T12:09:21.880Z,24.49
2022-08-03T12:11:59.481Z,24.41
2022-08-03T12:14:48.492Z,24.31
2022-08-03T12:17:14.634Z,23.89
2022-08-03T12:19:44.964Z,23.79
2022-08-03T12:22:11.407Z,23.74
2022-08-03T12:24:46.758Z,23.78
2022-08-03T12:27:23.416Z,24.03
2022-08-03T12:29:57.286Z,23.95
2022-08-03T12:32:26.226Z,24.30
2022-08-03T12:34:52.624Z,24.29
2022-08-03T12:37:22.624Z,24.88
2022-08-03T12:40:00.608Z,25.38
2022-08-03T12:42:37.041Z,25.36
2022-08-03T12:45:20.308Z,25.23
2022-08-03T12:47:58.324Z,24.92
2022-08-03T12:50:33.707Z,24.67
2022-08-03T12:53:03.084Z,25.16
2022-08-03T12:55:56.221Z,24.73
2022-08-03T12:58:34.194Z,25.55
2022-08-03T13:01:05.244Z,25.74
2022-08-03T13:03:42.787Z,25.72
2022-08-03T13:06:14.644Z,25.50
2022-08-03T13:08:41.410Z,25.38
2022-08-03T13:11:21.573Z,25.40
2022-08-03T13:13:48.517Z,24.85
2022-08-03T13:16:19.193Z,25.53
2022-08-03T13:18:48.899Z,26.41
2022-08-03T13:21:16.450Z,26.20
2022-08-03T13:23:43.306Z,26.19
2022-08-03T13:26:10.492Z,25.54
2022-08-03T13:28:39.671Z,25.50
2022-08-03T13:31:07.112Z,26.67
2022-08-03T13:33:34.120Z,25.64
2022-08-03T13:36:00.504Z,24.92
2022-08-03T13:38:27.297Z,25.67
2022-08-03T13:40:55.056Z,25.47
2022-08-03T13:43:23.485Z,25.75
2022-08-03T13:45:53.529Z,26.22
2022-08-03T13:48:37.197Z,26.50
2022-08-03T13:51:22.011Z,27.48
2022-08-03T13:53:51.081Z,27.60
2022-08-03T13:56:17.619Z,27.85
2022-08-03T13:58:44.119Z,27.60
2022-08-03T14:01:11.228Z,27.85
2022-08-03T14:03:37.690Z,28.79
2022-08-03T14:06:04.189Z,28.27
2022-08-03T14:08:30.591Z,28.96
2022-08-03T14:10:57.017Z,29.15
2022-08-03T14:13:25.012Z,29.52
2022-08-03T14:15:51.925Z,29.92
2022-08-03T14:18:29.062Z,30.36
2022-08-03T14:21:05.443Z,30.20
2022-08-03T14:23:34.284Z,29.98
2022-08-03T14:26:01.168Z,28.87
2022-08-03T14:28:28.602Z,28.79
2022-08-03T14:30:56.054Z,29.56
2022-08-03T14:33:22.865Z,29.53
2022-08-03T14:35:49.776Z,30.36
2022-08-03T14:38:16.483Z,30.36
2022-08-03T14:40:44.720Z,30.36
2022-08-03T14:43:11.172Z,30.18
2022-08-03T14:45:38.657Z,30.50
2022-08-03T14:50:34.482Z,30.82
2022-08-03T14:50:52.852Z,31.57
2022-08-03T14:53:19.652Z,31.93
2022-08-03T14:55:50.860Z,31.36
2022-08-03T14:58:22.502Z,32.12
2022-08-03T15:00:50.888Z,31.95
2022-08-03T15:03:21.364Z,30.68
2022-08-03T15:05:47.814Z,30.41
2022-08-03T15:08:14.289Z,31.34
2022-08-03T15:10:44.869Z,31.80
2022-08-03T15:13:13.174Z,30.41
2022-08-03T15:15:40.316Z,30.85
2022-08-03T15:18:07.250Z,30.28
2022-08-03T15:20:43.667Z,30.09
2022-08-03T15:23:11.727Z,30.04
2022-08-03T15:26:28.282Z,30.79
2022-08-03T15:28:24.813Z,31.69
2022-08-03T15:30:52.849Z,30.92
2022-08-03T15:33:19.375Z,31.39
2022-08-03T15:35:47.307Z,31.53
2022-08-03T15:38:13.732Z,31.04
2022-08-03T15:40:40.147Z,31.60
2022-08-03T15:43:06.758Z,31.80
2022-08-03T15:45:36.402Z,31.10
2022-08-03T15:48:05.679Z,32.19
2022-08-03T15:50:32.684Z,32.29
2022-08-03T15:52:59.094Z,33.28
2022-08-03T15:55:25.701Z,33.70
2022-08-03T15:59:04.723Z,33.61
2022-08-03T16:00:38.768Z,34.83
2022-08-03T16:03:05.320Z,33.77
2022-08-03T16:05:32.070Z,32.82
2022-08-03T16:08:04.295Z,33.21
2022-08-03T16:10:32.631Z,33.38
2022-08-03T16:12:59.951Z,34.05
2022-08-03T16:15:26.617Z,34.09
2022-08-03T16:17:53.025Z,33.21
2022-08-03T16:20:30.778Z,33.65
2022-08-03T16:23:10.763Z,33.62
2022-08-03T16:25:42.137Z,33.28
2022-08-03T16:28:13.751Z,33.50
2022-08-03T16:30:42.664Z,35.16
2022-08-03T16:33:09.774Z,36.12
2022-08-03T16:35:38.541Z,34.95
2022-08-03T16:38:09.973Z,35.99
2022-08-03T16:40:37.996Z,35.09
2022-08-03T16:43:18.108Z,34.91
2022-08-03T16:45:46.308Z,35.39
2022-08-03T16:48:12.730Z,34.66
2022-08-03T16:50:39.165Z,34.83
2022-08-03T16:53:09.117Z,35.53
2022-08-03T16:55:51.590Z,35.70
2022-08-03T16:58:34.222Z,35.23
2022-08-03T17:01:20.919Z,35.14
2022-08-03T17:04:02.789Z,34.67
2022-08-03T17:06:35.048Z,36.31
2022-08-03T17:09:10.862Z,35.25
2022-08-03T17:11:46.648Z,35.04
2022-08-03T17:14:14.788Z,34.81
2022-08-03T17:16:45.073Z,34.70
2022-08-03T17:19:21.447Z,33.79
2022-08-03T17:21:57.990Z,35.11
2022-08-03T17:24:41.584Z,35.24
2022-08-03T17:28:41.997Z,35.59
2022-08-03T17:30:07.672Z,35.44
2022-08-03T17:32:37.167Z,34.62
2022-08-03T17:35:10.657Z,34.87
2022-08-03T17:37:57.431Z,33.62
2022-08-03T17:40:24.339Z,33.13
2022-08-03T17:42:52.454Z,32.69
2022-08-03T17:45:19.795Z,31.96
2022-08-03T17:47:57.634Z,31.21
2022-08-03T17:50:33.127Z,29.99
2022-08-03T17:53:07.624Z,30.13
2022-08-03T17:56:04.337Z,30.44
2022-08-03T17:58:52.497Z,28.63
2022-08-03T18:02:02.632Z,28.09
2022-08-03T18:04:33.389Z,28.62
2022-08-03T18:07:11.245Z,27.68
2022-08-03T18:10:06.831Z,27.45
2022-08-03T18:12:42.471Z,26.90
2022-08-03T18:15:21.366Z,25.66
2022-08-03T18:17:58.246Z,24.55
2022-08-03T18:20:32.670Z,24.29
2022-08-03T18:23:05.815Z,24.09
2022-08-03T18:25:44.384Z,23.69
2022-08-03T18:28:16.246Z,23.40
2022-08-03T18:30:54.451Z,23.19
2022-08-03T18:34:17.324Z,22.98
2022-08-03T18:36:22.123Z,23.08
2022-08-03T18:38:58.364Z,23.55
2022-08-03T18:41:33.240Z,24.61
2022-08-03T18:44:08.747Z,23.59
2022-08-03T18:47:16.374Z,22.80
2022-08-03T18:49:58.688Z,22.35
2022-08-03T18:52:37.335Z,22.12
2022-08-03T18:58:18.421Z,21.79
2022-08-03T19:00:58.456Z,21.69
2022-08-03T19:09:12.987Z,21.37
2022-08-03T19:12:12.593Z,21.25
2022-08-03T19:14:42.457Z,21.13
2022-08-03T19:17:11.480Z,21.00
2022-08-03T19:19:44.941Z,20.89
2022-08-03T19:22:12.768Z,20.81
2022-08-03T19:24:45.329Z,20.73
2022-08-03T19:27:20.240Z,20.63
2022-08-03T19:29:59.560Z,20.56
2022-08-03T19:32:31.418Z,20.52
2022-08-03T19:34:59.807Z,20.39
2022-08-03T19:37:38.526Z,20.26
2022-08-03T19:40:12.225Z,20.14
2022-08-03T19:42:44.811Z,20.09
2022-08-03T19:45:18.371Z,20.08
2022-08-03T19:47:51.480Z,20.02
2022-08-03T19:50:20.352Z,20.04
2022-08-03T19:52:48.182Z,19.94
2022-08-03T19:55:18.879Z,19.91
2022-08-03T19:57:50.393Z,19.92
2022-08-03T20:00:19.878Z,19.91
2022-08-03T20:02:52.831Z,19.88
2022-08-03T20:05:19.321Z,19.92
2022-08-03T20:07:47.892Z,19.83
2022-08-03T20:10:16.719Z,19.76
2022-08-03T20:12:44.284Z,19.71
2022-08-03T20:15:11.959Z,19.64
2022-08-03T20:17:55.995Z,19.59
2022-08-03T20:20:35.436Z,19.52
2022-08-03T20:23:18.179Z,19.42
2022-08-03T20:25:58.307Z,19.35
2022-08-03T20:28:32.635Z,19.33
2022-08-03T20:31:00.006Z,19.30
2022-08-03T20:33:36.390Z,19.28
2022-08-03T20:36:17.695Z,19.25
2022-08-03T20:38:46.985Z,19.25
2022-08-03T20:41:15.607Z,19.20
2022-08-03T20:43:42.118Z,19.18
2022-08-03T20:46:31.963Z,19.17
2022-08-03T20:49:00.276Z,19.12
2022-08-03T20:51:50.317Z,19.00
2022-08-03T20:54:29.838Z,19.03
2022-08-03T20:57:00.484Z,19.04
2022-08-03T20:59:38.509Z,19.00
2022-08-03T21:02:19.762Z,18.97
2022-08-03T21:04:55.822Z,19.03
2022-08-03T21:07:24.188Z,18.99
2022-08-03T21:09:53.145Z,18.95
2022-08-03T21:13:01.259Z,21.64
2022-08-03T21:13:09.723Z,21.96
2022-08-03T21:13:10.956Z,21.46
2022-08-03T21:13:13.254Z,18.88
2022-08-03T21:16:02.601Z,18.86
2022-08-03T21:18:34.582Z,18.81
2022-08-03T21:21:01.297Z,18.74
2022-08-03T21:23:39.926Z,18.74
2022-08-03T21:26:17.353Z,18.72
2022-08-03T21:28:46.526Z,18.60
2022-08-03T21:31:14.082Z,18.55
2022-08-03T21:33:41.700Z,18.52
2022-08-03T21:36:16.673Z,18.50
2022-08-03T21:38:44.006Z,18.51
2022-08-03T21:41:14.076Z,18.53
2022-08-03T21:43:40.502Z,18.57
2022-08-03T21:46:07.539Z,18.56
2022-08-03T21:48:40.136Z,18.50
2022-08-03T21:51:09.002Z,18.48
2022-08-03T21:54:02.491Z,18.46
2022-08-03T21:56:23.651Z,18.43
2022-08-03T21:59:04.500Z,18.40
2022-08-03T22:01:35.431Z,18.41
2022-08-03T22:04:07.182Z,18.44
2022-08-03T22:06:35.924Z,18.47
2022-08-03T22:09:05.476Z,18.45
2022-08-03T22:11:34.264Z,18.40
2022-08-03T22:14:01.976Z,18.41
2022-08-03T22:16:29.191Z,18.39
2022-08-03T22:18:55.627Z,18.35
2022-08-03T22:21:27.953Z,18.34
2022-08-03T22:24:04.921Z,18.33
2022-08-03T22:26:35.359Z,18.29
2022-08-03T22:29:07.195Z,18.23
2022-08-03T22:31:57.362Z,18.21
2022-08-03T22:34:26.786Z,18.22
2022-08-03T22:36:57.188Z,18.23
2022-08-03T22:39:28.369Z,18.19
2022-08-03T22:41:59.107Z,18.23
2022-08-03T22:44:29.414Z,18.23
2022-08-03T22:46:56.724Z,18.26
2022-08-03T22:49:24.274Z,18.28
2022-08-03T22:51:51.752Z,18.25
2022-08-03T22:54:18.892Z,18.22
2022-08-03T22:56:50.041Z,18.22
2022-08-03T22:59:40.633Z,18.22
2022-08-03T23:02:20.600Z,18.23
2022-08-03T23:04:54.787Z,18.18
2022-08-03T23:07:49.239Z,18.17
2022-08-03T23:10:15.764Z,18.15
2022-08-03T23:12:43.705Z,18.10
2022-08-03T23:15:12.625Z,18.06
2022-08-03T23:17:58.160Z,18.03
2022-08-03T23:20:26.917Z,18.01
2022-08-03T23:22:55.674Z,17.98
2022-08-03T23:25:22.641Z,17.95
2022-08-03T23:28:05.346Z,17.95
2022-08-03T23:30:37.187Z,18.03
2022-08-03T23:33:04.298Z,18.02
2022-08-03T23:36:28.962Z,17.95
2022-08-03T23:38:37.209Z,17.87
2022-08-03T23:41:04.812Z,17.82
2022-08-03T23:43:45.151Z,17.79
2022-08-03T23:46:19.675Z,17.75
2022-08-03T23:48:46.196Z,17.73
2022-08-03T23:51:35.276Z,17.71
2022-08-03T23:54:09.888Z,17.70
2022-08-03T23:56:41.888Z,17.73
2022-08-03T23:59:24.163Z,17.71
